sensor_id;sensor_type;location;lat;lon;timestamp;P1;durP1;ratioP1;P2;durP2;ratioP2
29030;SDS011;16122;50.236;11.734;2023-11-19T00:00:43;0.70;;;0.60;;
29030;SDS011;16122;50.236;11.734;2023-11-19T00:03:08;0.90;;;0.70;;
29030;SDS011;16122;50.236;11.734;2023-11-19T00:05:36;1.10;;;1.00;;
29030;SDS011;16122;50.236;11.734;2023-11-19T00:08:01;1.17;;;0.77;;
29030;SDS011;16122;50.236;11.734;2023-11-19T00:10:27;0.70;;;0.70;;
29030;SDS011;16122;50.236;11.734;2023-11-19T00:12:53;0.70;;;0.70;;
29030;SDS011;16122;50.236;11.734;2023-11-19T00:15:19;0.60;;;0.60;;
29030;SDS011;16122;50.236;11.734;2023-11-19T00:17:45;0.90;;;0.90;;
29030;SDS011;16122;50.236;11.734;2023-11-19T00:20:13;0.80;;;0.80;;
29030;SDS011;16122;50.236;11.734;2023-11-19T00:22:41;0.83;;;0.60;;
29030;SDS011;16122;50.236;11.734;2023-11-19T00:25:07;0.60;;;0.60;;
29030;SDS011;16122;50.236;11.734;2023-11-19T00:27:34;1.50;;;1.00;;
29030;SDS011;16122;50.236;11.734;2023-11-19T00:30:00;0.77;;;0.77;;
29030;SDS011;16122;50.236;11.734;2023-11-19T00:32:27;0.60;;;0.60;;
29030;SDS011;16122;50.236;11.734;2023-11-19T00:34:52;0.70;;;0.70;;
29030;SDS011;16122;50.236;11.734;2023-11-19T00:37:18;0.70;;;0.70;;
29030;SDS011;16122;50.236;11.734;2023-11-19T00:39:44;0.77;;;0.67;;
29030;SDS011;16122;50.236;11.734;2023-11-19T00:42:11;1.00;;;0.90;;
29030;SDS011;16122;50.236;11.734;2023-11-19T00:44:37;2.47;;;1.00;;
29030;SDS011;16122;50.236;11.734;2023-11-19T00:47:03;2.83;;;0.83;;
29030;SDS011;16122;50.236;11.734;2023-11-19T00:49:30;3.20;;;1.00;;
29030;SDS011;16122;50.236;11.734;2023-11-19T00:51:58;2.83;;;1.43;;
29030;SDS011;16122;50.236;11.734;2023-11-19T00:54:25;2.60;;;1.40;;
29030;SDS011;16122;50.236;11.734;2023-11-19T00:56:54;1.43;;;1.17;;
29030;SDS011;16122;50.236;11.734;2023-11-19T00:59:20;1.40;;;1.30;;
29030;SDS011;16122;50.236;11.734;2023-11-19T01:01:46;2.47;;;1.30;;
29030;SDS011;16122;50.236;11.734;2023-11-19T01:04:18;1.40;;;1.13;;
29030;SDS011;16122;50.236;11.734;2023-11-19T01:06:45;2.00;;;1.10;;
29030;SDS011;16122;50.236;11.734;2023-11-19T01:09:11;1.93;;;1.23;;
29030;SDS011;16122;50.236;11.734;2023-11-19T01:11:36;2.40;;;1.30;;
29030;SDS011;16122;50.236;11.734;2023-11-19T01:14:02;1.37;;;0.93;;
29030;SDS011;16122;50.236;11.734;2023-11-19T01:16:28;2.23;;;1.17;;
29030;SDS011;16122;50.236;11.734;2023-11-19T01:18:55;2.30;;;1.17;;
29030;SDS011;16122;50.236;11.734;2023-11-19T01:21:21;1.20;;;0.93;;
29030;SDS011;16122;50.236;11.734;2023-11-19T01:23:47;1.20;;;1.10;;
29030;SDS011;16122;50.236;11.734;2023-11-19T01:26:13;2.07;;;0.87;;
29030;SDS011;16122;50.236;11.734;2023-11-19T01:28:39;1.93;;;0.90;;
29030;SDS011;16122;50.236;11.734;2023-11-19T01:31:15;2.23;;;1.10;;
29030;SDS011;16122;50.236;11.734;2023-11-19T01:33:41;2.93;;;0.90;;
29030;SDS011;16122;50.236;11.734;2023-11-19T01:36:07;1.43;;;0.80;;
29030;SDS011;16122;50.236;11.734;2023-11-19T01:38:34;2.10;;;1.10;;
29030;SDS011;16122;50.236;11.734;2023-11-19T01:41:00;1.50;;;1.30;;
29030;SDS011;16122;50.236;11.734;2023-11-19T01:43:38;2.37;;;0.90;;
29030;SDS011;16122;50.236;11.734;2023-11-19T01:46:08;1.93;;;0.97;;
29030;SDS011;16122;50.236;11.734;2023-11-19T01:48:39;1.33;;;0.77;;
29030;SDS011;16122;50.236;11.734;2023-11-19T01:51:08;1.30;;;0.90;;
29030;SDS011;16122;50.236;11.734;2023-11-19T01:53:34;1.00;;;0.90;;
29030;SDS011;16122;50.236;11.734;2023-11-19T01:56:03;1.47;;;0.70;;
29030;SDS011;16122;50.236;11.734;2023-11-19T01:58:35;1.90;;;0.90;;
29030;SDS011;16122;50.236;11.734;2023-11-19T02:01:01;2.70;;;0.87;;
29030;SDS011;16122;50.236;11.734;2023-11-19T02:03:33;0.93;;;0.80;;
29030;SDS011;16122;50.236;11.734;2023-11-19T02:06:00;2.93;;;0.90;;
29030;SDS011;16122;50.236;11.734;2023-11-19T02:08:26;0.80;;;0.70;;
29030;SDS011;16122;50.236;11.734;2023-11-19T02:10:52;1.00;;;0.80;;
29030;SDS011;16122;50.236;11.734;2023-11-19T02:13:20;0.90;;;0.80;;
29030;SDS011;16122;50.236;11.734;2023-11-19T02:15:46;0.90;;;0.80;;
29030;SDS011;16122;50.236;11.734;2023-11-19T02:18:25;0.93;;;0.70;;
29030;SDS011;16122;50.236;11.734;2023-11-19T02:20:56;1.57;;;0.70;;
29030;SDS011;16122;50.236;11.734;2023-11-19T02:23:23;1.00;;;0.60;;
29030;SDS011;16122;50.236;11.734;2023-11-19T02:28:58;0.70;;;0.70;;
29030;SDS011;16122;50.236;11.734;2023-11-19T02:31:24;0.80;;;0.70;;
29030;SDS011;16122;50.236;11.734;2023-11-19T02:33:52;1.33;;;0.77;;
29030;SDS011;16122;50.236;11.734;2023-11-19T02:36:19;0.90;;;0.80;;
29030;SDS011;16122;50.236;11.734;2023-11-19T02:38:45;1.23;;;0.80;;
29030;SDS011;16122;50.236;11.734;2023-11-19T02:41:11;1.40;;;0.60;;
29030;SDS011;16122;50.236;11.734;2023-11-19T02:43:37;0.60;;;0.60;;
29030;SDS011;16122;50.236;11.734;2023-11-19T02:46:04;1.10;;;0.70;;
29030;SDS011;16122;50.236;11.734;2023-11-19T02:48:34;0.80;;;0.60;;
29030;SDS011;16122;50.236;11.734;2023-11-19T02:51:00;1.00;;;0.70;;
29030;SDS011;16122;50.236;11.734;2023-11-19T02:53:29;0.60;;;0.60;;
29030;SDS011;16122;50.236;11.734;2023-11-19T02:55:55;0.70;;;0.63;;
29030;SDS011;16122;50.236;11.734;2023-11-19T02:58:29;0.60;;;0.60;;
29030;SDS011;16122;50.236;11.734;2023-11-19T03:00:55;1.00;;;0.90;;
29030;SDS011;16122;50.236;11.734;2023-11-19T03:03:26;0.60;;;0.60;;
29030;SDS011;16122;50.236;11.734;2023-11-19T03:06:06;0.80;;;0.80;;
29030;SDS011;16122;50.236;11.734;2023-11-19T03:08:35;0.50;;;0.50;;
29030;SDS011;16122;50.236;11.734;2023-11-19T03:11:01;0.60;;;0.60;;
29030;SDS011;16122;50.236;11.734;2023-11-19T03:13:27;0.87;;;0.60;;
29030;SDS011;16122;50.236;11.734;2023-11-19T03:15:53;0.50;;;0.50;;
29030;SDS011;16122;50.236;11.734;2023-11-19T03:18:19;0.83;;;0.50;;
29030;SDS011;16122;50.236;11.734;2023-11-19T03:20:46;0.60;;;0.50;;
29030;SDS011;16122;50.236;11.734;2023-11-19T03:23:13;0.63;;;0.57;;
29030;SDS011;16122;50.236;11.734;2023-11-19T03:25:38;0.50;;;0.40;;
29030;SDS011;16122;50.236;11.734;2023-11-19T03:28:04;1.30;;;0.60;;
29030;SDS011;16122;50.236;11.734;2023-11-19T03:30:31;0.60;;;0.60;;
29030;SDS011;16122;50.236;11.734;2023-11-19T03:32:57;3.80;;;1.00;;
29030;SDS011;16122;50.236;11.734;2023-11-19T03:35:25;0.50;;;0.40;;
29030;SDS011;16122;50.236;11.734;2023-11-19T03:37:51;0.70;;;0.57;;
29030;SDS011;16122;50.236;11.734;2023-11-19T03:40:17;1.40;;;0.63;;
29030;SDS011;16122;50.236;11.734;2023-11-19T03:42:44;0.70;;;0.50;;
29030;SDS011;16122;50.236;11.734;2023-11-19T03:45:11;1.37;;;1.00;;
29030;SDS011;16122;50.236;11.734;2023-11-19T03:47:37;0.60;;;0.53;;
29030;SDS011;16122;50.236;11.734;2023-11-19T03:50:04;0.53;;;0.50;;
29030;SDS011;16122;50.236;11.734;2023-11-19T03:52:30;0.70;;;0.63;;
29030;SDS011;16122;50.236;11.734;2023-11-19T03:54:56;0.70;;;0.60;;
29030;SDS011;16122;50.236;11.734;2023-11-19T03:57:22;1.07;;;0.60;;
29030;SDS011;16122;50.236;11.734;2023-11-19T03:59:48;0.53;;;0.50;;
29030;SDS011;16122;50.236;11.734;2023-11-19T04:02:15;1.27;;;0.70;;
29030;SDS011;16122;50.236;11.734;2023-11-19T04:04:42;0.50;;;0.50;;
29030;SDS011;16122;50.236;11.734;2023-11-19T04:07:08;0.70;;;0.50;;
29030;SDS011;16122;50.236;11.734;2023-11-19T04:09:34;0.70;;;0.50;;
29030;SDS011;16122;50.236;11.734;2023-11-19T04:12:02;0.90;;;0.50;;
29030;SDS011;16122;50.236;11.734;2023-11-19T04:14:29;0.50;;;0.50;;
29030;SDS011;16122;50.236;11.734;2023-11-19T04:16:55;0.60;;;0.50;;
29030;SDS011;16122;50.236;11.734;2023-11-19T04:19:20;0.50;;;0.50;;
29030;SDS011;16122;50.236;11.734;2023-11-19T04:21:47;0.70;;;0.57;;
29030;SDS011;16122;50.236;11.734;2023-11-19T04:24:12;0.70;;;0.50;;
29030;SDS011;16122;50.236;11.734;2023-11-19T04:26:42;0.80;;;0.60;;
29030;SDS011;16122;50.236;11.734;2023-11-19T04:29:13;0.60;;;0.50;;
29030;SDS011;16122;50.236;11.734;2023-11-19T04:31:42;0.50;;;0.50;;
29030;SDS011;16122;50.236;11.734;2023-11-19T04:34:09;0.63;;;0.53;;
29030;SDS011;16122;50.236;11.734;2023-11-19T04:36:36;0.50;;;0.40;;
29030;SDS011;16122;50.236;11.734;2023-11-19T04:39:02;0.50;;;0.40;;
29030;SDS011;16122;50.236;11.734;2023-11-19T04:41:35;0.57;;;0.50;;
29030;SDS011;16122;50.236;11.734;2023-11-19T04:44:01;1.47;;;0.60;;
29030;SDS011;16122;50.236;11.734;2023-11-19T04:46:27;0.90;;;0.50;;
29030;SDS011;16122;50.236;11.734;2023-11-19T04:48:53;0.80;;;0.50;;
29030;SDS011;16122;50.236;11.734;2023-11-19T04:51:19;0.63;;;0.60;;
29030;SDS011;16122;50.236;11.734;2023-11-19T04:53:44;0.60;;;0.50;;
29030;SDS011;16122;50.236;11.734;2023-11-19T04:56:10;0.60;;;0.57;;
29030;SDS011;16122;50.236;11.734;2023-11-19T04:58:37;0.50;;;0.40;;
29030;SDS011;16122;50.236;11.734;2023-11-19T05:01:03;0.50;;;0.40;;
29030;SDS011;16122;50.236;11.734;2023-11-19T05:03:30;0.60;;;0.50;;
29030;SDS011;16122;50.236;11.734;2023-11-19T05:05:56;0.57;;;0.50;;
29030;SDS011;16122;50.236;11.734;2023-11-19T05:08:23;0.50;;;0.50;;
29030;SDS011;16122;50.236;11.734;2023-11-19T05:10:49;0.67;;;0.50;;
29030;SDS011;16122;50.236;11.734;2023-11-19T05:13:15;0.53;;;0.50;;
29030;SDS011;16122;50.236;11.734;2023-11-19T05:15:41;0.60;;;0.40;;
29030;SDS011;16122;50.236;11.734;2023-11-19T05:18:06;0.50;;;0.40;;
29030;SDS011;16122;50.236;11.734;2023-11-19T05:20:32;0.57;;;0.50;;
29030;SDS011;16122;50.236;11.734;2023-11-19T05:22:58;0.60;;;0.50;;
29030;SDS011;16122;50.236;11.734;2023-11-19T05:25:25;0.77;;;0.50;;
29030;SDS011;16122;50.236;11.734;2023-11-19T05:27:52;0.50;;;0.40;;
29030;SDS011;16122;50.236;11.734;2023-11-19T05:30:18;0.70;;;0.60;;
29030;SDS011;16122;50.236;11.734;2023-11-19T05:32:44;0.73;;;0.57;;
29030;SDS011;16122;50.236;11.734;2023-11-19T05:35:10;0.60;;;0.47;;
29030;SDS011;16122;50.236;11.734;2023-11-19T05:37:36;0.50;;;0.50;;
29030;SDS011;16122;50.236;11.734;2023-11-19T05:40:03;0.50;;;0.40;;
29030;SDS011;16122;50.236;11.734;2023-11-19T05:42:33;0.50;;;0.40;;
29030;SDS011;16122;50.236;11.734;2023-11-19T05:44:59;0.80;;;0.60;;
29030;SDS011;16122;50.236;11.734;2023-11-19T05:47:24;0.50;;;0.50;;
29030;SDS011;16122;50.236;11.734;2023-11-19T05:49:50;0.50;;;0.40;;
29030;SDS011;16122;50.236;11.734;2023-11-19T05:52:16;0.50;;;0.50;;
29030;SDS011;16122;50.236;11.734;2023-11-19T05:54:42;0.50;;;0.40;;
29030;SDS011;16122;50.236;11.734;2023-11-19T05:57:08;0.50;;;0.40;;
29030;SDS011;16122;50.236;11.734;2023-11-19T05:59:34;0.50;;;0.40;;
29030;SDS011;16122;50.236;11.734;2023-11-19T06:02:01;0.50;;;0.50;;
29030;SDS011;16122;50.236;11.734;2023-11-19T06:04:28;0.50;;;0.40;;
29030;SDS011;16122;50.236;11.734;2023-11-19T06:06:53;0.50;;;0.50;;
29030;SDS011;16122;50.236;11.734;2023-11-19T06:09:20;0.50;;;0.50;;
29030;SDS011;16122;50.236;11.734;2023-11-19T06:11:48;0.60;;;0.50;;
29030;SDS011;16122;50.236;11.734;2023-11-19T06:14:18;0.50;;;0.50;;
29030;SDS011;16122;50.236;11.734;2023-11-19T06:16:44;0.47;;;0.47;;
29030;SDS011;16122;50.236;11.734;2023-11-19T06:19:10;0.50;;;0.40;;
29030;SDS011;16122;50.236;11.734;2023-11-19T06:21:37;0.40;;;0.40;;
29030;SDS011;16122;50.236;11.734;2023-11-19T06:24:03;3.33;;;0.50;;
29030;SDS011;16122;50.236;11.734;2023-11-19T06:26:28;0.60;;;0.50;;
29030;SDS011;16122;50.236;11.734;2023-11-19T06:28:54;1.00;;;0.50;;
29030;SDS011;16122;50.236;11.734;2023-11-19T06:31:20;3.13;;;0.50;;
29030;SDS011;16122;50.236;11.734;2023-11-19T06:33:46;1.73;;;0.50;;
29030;SDS011;16122;50.236;11.734;2023-11-19T06:36:14;0.80;;;0.50;;
29030;SDS011;16122;50.236;11.734;2023-11-19T06:38:41;0.53;;;0.50;;
29030;SDS011;16122;50.236;11.734;2023-11-19T06:41:08;0.40;;;0.40;;
29030;SDS011;16122;50.236;11.734;2023-11-19T06:43:34;0.70;;;0.50;;
29030;SDS011;16122;50.236;11.734;2023-11-19T06:46:01;0.60;;;0.50;;
29030;SDS011;16122;50.236;11.734;2023-11-19T06:48:27;0.50;;;0.50;;
29030;SDS011;16122;50.236;11.734;2023-11-19T06:50:53;0.50;;;0.40;;
29030;SDS011;16122;50.236;11.734;2023-11-19T06:53:19;0.57;;;0.50;;
29030;SDS011;16122;50.236;11.734;2023-11-19T06:55:44;1.73;;;0.50;;
29030;SDS011;16122;50.236;11.734;2023-11-19T06:58:10;1.77;;;0.50;;
29030;SDS011;16122;50.236;11.734;2023-11-19T07:00:37;0.70;;;0.50;;
29030;SDS011;16122;50.236;11.734;2023-11-19T07:03:03;0.83;;;0.40;;
29030;SDS011;16122;50.236;11.734;2023-11-19T07:05:31;0.60;;;0.50;;
29030;SDS011;16122;50.236;11.734;2023-11-19T07:07:57;0.90;;;0.50;;
29030;SDS011;16122;50.236;11.734;2023-11-19T07:10:23;0.60;;;0.50;;
29030;SDS011;16122;50.236;11.734;2023-11-19T07:12:48;0.70;;;0.50;;
29030;SDS011;16122;50.236;11.734;2023-11-19T07:15:15;0.50;;;0.50;;
29030;SDS011;16122;50.236;11.734;2023-11-19T07:17:42;1.00;;;0.60;;
29030;SDS011;16122;50.236;11.734;2023-11-19T07:20:10;0.50;;;0.50;;
29030;SDS011;16122;50.236;11.734;2023-11-19T07:22:41;1.00;;;0.70;;
29030;SDS011;16122;50.236;11.734;2023-11-19T07:25:12;0.60;;;0.60;;
29030;SDS011;16122;50.236;11.734;2023-11-19T07:27:38;1.20;;;0.63;;
29030;SDS011;16122;50.236;11.734;2023-11-19T07:30:08;0.60;;;0.50;;
29030;SDS011;16122;50.236;11.734;2023-11-19T07:32:33;1.37;;;0.60;;
29030;SDS011;16122;50.236;11.734;2023-11-19T07:35:02;1.00;;;0.63;;
29030;SDS011;16122;50.236;11.734;2023-11-19T07:37:29;1.27;;;0.50;;
29030;SDS011;16122;50.236;11.734;2023-11-19T07:39:55;1.73;;;0.80;;
29030;SDS011;16122;50.236;11.734;2023-11-19T07:42:20;0.70;;;0.60;;
29030;SDS011;16122;50.236;11.734;2023-11-19T07:44:46;1.73;;;0.57;;
29030;SDS011;16122;50.236;11.734;2023-11-19T07:47:12;0.70;;;0.60;;
29030;SDS011;16122;50.236;11.734;2023-11-19T07:49:38;5.50;;;0.70;;
29030;SDS011;16122;50.236;11.734;2023-11-19T07:52:04;0.60;;;0.50;;
29030;SDS011;16122;50.236;11.734;2023-11-19T07:54:30;0.80;;;0.73;;
29030;SDS011;16122;50.236;11.734;2023-11-19T07:56:56;0.80;;;0.60;;
29030;SDS011;16122;50.236;11.734;2023-11-19T07:59:22;0.87;;;0.67;;
29030;SDS011;16122;50.236;11.734;2023-11-19T08:01:47;0.50;;;0.50;;
29030;SDS011;16122;50.236;11.734;2023-11-19T08:04:13;0.80;;;0.70;;
29030;SDS011;16122;50.236;11.734;2023-11-19T08:06:39;0.90;;;0.67;;
29030;SDS011;16122;50.236;11.734;2023-11-19T08:09:05;0.70;;;0.63;;
29030;SDS011;16122;50.236;11.734;2023-11-19T08:11:32;0.90;;;0.67;;
29030;SDS011;16122;50.236;11.734;2023-11-19T08:13:58;0.87;;;0.60;;
29030;SDS011;16122;50.236;11.734;2023-11-19T08:16:24;0.83;;;0.50;;
29030;SDS011;16122;50.236;11.734;2023-11-19T08:18:50;1.80;;;0.77;;
29030;SDS011;16122;50.236;11.734;2023-11-19T08:21:16;1.77;;;0.60;;
29030;SDS011;16122;50.236;11.734;2023-11-19T08:23:42;0.80;;;0.53;;
29030;SDS011;16122;50.236;11.734;2023-11-19T08:26:07;1.57;;;0.50;;
29030;SDS011;16122;50.236;11.734;2023-11-19T08:28:33;0.67;;;0.57;;
29030;SDS011;16122;50.236;11.734;2023-11-19T08:31:00;1.00;;;0.60;;
29030;SDS011;16122;50.236;11.734;2023-11-19T08:33:26;1.20;;;0.70;;
29030;SDS011;16122;50.236;11.734;2023-11-19T08:35:52;1.43;;;0.50;;
29030;SDS011;16122;50.236;11.734;2023-11-19T08:38:18;0.70;;;0.50;;
29030;SDS011;16122;50.236;11.734;2023-11-19T08:40:43;0.63;;;0.50;;
29030;SDS011;16122;50.236;11.734;2023-11-19T08:43:09;0.70;;;0.50;;
29030;SDS011;16122;50.236;11.734;2023-11-19T08:45:36;1.00;;;0.50;;
29030;SDS011;16122;50.236;11.734;2023-11-19T08:48:02;0.50;;;0.50;;
29030;SDS011;16122;50.236;11.734;2023-11-19T08:50:28;0.60;;;0.50;;
29030;SDS011;16122;50.236;11.734;2023-11-19T08:52:53;0.70;;;0.60;;
29030;SDS011;16122;50.236;11.734;2023-11-19T08:55:19;0.73;;;0.50;;
29030;SDS011;16122;50.236;11.734;2023-11-19T08:57:45;0.60;;;0.50;;
29030;SDS011;16122;50.236;11.734;2023-11-19T09:00:11;1.23;;;0.60;;
29030;SDS011;16122;50.236;11.734;2023-11-19T09:02:39;0.53;;;0.50;;
29030;SDS011;16122;50.236;11.734;2023-11-19T09:05:05;1.67;;;0.50;;
29030;SDS011;16122;50.236;11.734;2023-11-19T09:07:34;1.00;;;0.63;;
29030;SDS011;16122;50.236;11.734;2023-11-19T09:10:00;2.20;;;0.70;;
29030;SDS011;16122;50.236;11.734;2023-11-19T09:12:26;0.60;;;0.60;;
29030;SDS011;16122;50.236;11.734;2023-11-19T09:14:52;0.50;;;0.40;;
29030;SDS011;16122;50.236;11.734;2023-11-19T09:17:18;0.77;;;0.57;;
29030;SDS011;16122;50.236;11.734;2023-11-19T09:19:44;0.97;;;0.60;;
29030;SDS011;16122;50.236;11.734;2023-11-19T09:22:10;0.70;;;0.53;;
29030;SDS011;16122;50.236;11.734;2023-11-19T09:24:35;1.63;;;0.87;;
29030;SDS011;16122;50.236;11.734;2023-11-19T09:27:01;1.03;;;0.50;;
29030;SDS011;16122;50.236;11.734;2023-11-19T09:29:27;1.93;;;0.60;;
29030;SDS011;16122;50.236;11.734;2023-11-19T09:31:56;0.70;;;0.60;;
29030;SDS011;16122;50.236;11.734;2023-11-19T09:34:22;0.77;;;0.60;;
29030;SDS011;16122;50.236;11.734;2023-11-19T09:36:47;0.60;;;0.60;;
29030;SDS011;16122;50.236;11.734;2023-11-19T09:39:13;0.70;;;0.50;;
29030;SDS011;16122;50.236;11.734;2023-11-19T09:41:45;1.40;;;0.60;;
29030;SDS011;16122;50.236;11.734;2023-11-19T09:44:12;6.10;;;0.60;;
29030;SDS011;16122;50.236;11.734;2023-11-19T09:46:42;1.10;;;0.70;;
29030;SDS011;16122;50.236;11.734;2023-11-19T09:49:08;0.53;;;0.50;;
29030;SDS011;16122;50.236;11.734;2023-11-19T09:51:38;2.10;;;0.63;;
29030;SDS011;16122;50.236;11.734;2023-11-19T09:54:04;0.57;;;0.50;;
29030;SDS011;16122;50.236;11.734;2023-11-19T09:56:30;0.60;;;0.50;;
29030;SDS011;16122;50.236;11.734;2023-11-19T09:58:58;0.90;;;0.50;;
29030;SDS011;16122;50.236;11.734;2023-11-19T10:01:25;0.60;;;0.60;;
29030;SDS011;16122;50.236;11.734;2023-11-19T10:03:50;1.60;;;0.73;;
29030;SDS011;16122;50.236;11.734;2023-11-19T10:06:20;0.70;;;0.53;;
29030;SDS011;16122;50.236;11.734;2023-11-19T10:08:46;0.87;;;0.80;;
29030;SDS011;16122;50.236;11.734;2023-11-19T10:11:12;1.03;;;0.60;;
29030;SDS011;16122;50.236;11.734;2023-11-19T10:13:38;1.57;;;0.70;;
29030;SDS011;16122;50.236;11.734;2023-11-19T10:16:07;1.00;;;0.63;;
29030;SDS011;16122;50.236;11.734;2023-11-19T10:18:34;0.70;;;0.57;;
29030;SDS011;16122;50.236;11.734;2023-11-19T10:21:06;0.90;;;0.90;;
29030;SDS011;16122;50.236;11.734;2023-11-19T10:23:51;4.03;;;0.57;;
29030;SDS011;16122;50.236;11.734;2023-11-19T10:26:19;0.63;;;0.50;;
29030;SDS011;16122;50.236;11.734;2023-11-19T10:28:46;1.87;;;0.70;;
29030;SDS011;16122;50.236;11.734;2023-11-19T10:31:13;1.63;;;0.80;;
29030;SDS011;16122;50.236;11.734;2023-11-19T10:33:39;0.60;;;0.60;;
29030;SDS011;16122;50.236;11.734;2023-11-19T10:36:05;0.50;;;0.50;;
29030;SDS011;16122;50.236;11.734;2023-11-19T10:38:32;0.70;;;0.60;;
29030;SDS011;16122;50.236;11.734;2023-11-19T10:40:58;1.20;;;0.50;;
29030;SDS011;16122;50.236;11.734;2023-11-19T10:43:24;0.80;;;0.70;;
29030;SDS011;16122;50.236;11.734;2023-11-19T10:45:51;0.80;;;0.53;;
29030;SDS011;16122;50.236;11.734;2023-11-19T10:48:17;1.23;;;0.80;;
29030;SDS011;16122;50.236;11.734;2023-11-19T10:50:44;0.93;;;0.60;;
29030;SDS011;16122;50.236;11.734;2023-11-19T10:53:11;0.90;;;0.80;;
29030;SDS011;16122;50.236;11.734;2023-11-19T10:55:47;0.60;;;0.50;;
29030;SDS011;16122;50.236;11.734;2023-11-19T10:58:13;1.33;;;0.60;;
29030;SDS011;16122;50.236;11.734;2023-11-19T11:00:45;0.73;;;0.70;;
29030;SDS011;16122;50.236;11.734;2023-11-19T11:03:21;0.80;;;0.60;;
29030;SDS011;16122;50.236;11.734;2023-11-19T11:05:51;1.53;;;0.60;;
29030;SDS011;16122;50.236;11.734;2023-11-19T11:08:19;0.60;;;0.53;;
29030;SDS011;16122;50.236;11.734;2023-11-19T11:10:52;0.60;;;0.50;;
29030;SDS011;16122;50.236;11.734;2023-11-19T11:13:18;0.50;;;0.40;;
29030;SDS011;16122;50.236;11.734;2023-11-19T11:15:47;1.03;;;0.60;;
29030;SDS011;16122;50.236;11.734;2023-11-19T11:18:15;1.93;;;0.60;;
29030;SDS011;16122;50.236;11.734;2023-11-19T11:20:43;2.00;;;0.70;;
29030;SDS011;16122;50.236;11.734;2023-11-19T11:31:29;2.13;;;0.63;;
29030;SDS011;16122;50.236;11.734;2023-11-19T11:34:11;4.40;;;0.70;;
29030;SDS011;16122;50.236;11.734;2023-11-19T11:37:09;0.70;;;0.57;;
29030;SDS011;16122;50.236;11.734;2023-11-19T11:39:42;2.07;;;0.67;;
29030;SDS011;16122;50.236;11.734;2023-11-19T11:50:20;2.70;;;0.97;;
29030;SDS011;16122;50.236;11.734;2023-11-19T11:55:24;6.43;;;0.97;;
29030;SDS011;16122;50.236;11.734;2023-11-19T11:57:56;3.33;;;0.90;;
29030;SDS011;16122;50.236;11.734;2023-11-19T12:03:02;3.70;;;1.10;;
29030;SDS011;16122;50.236;11.734;2023-11-19T12:05:30;5.37;;;1.57;;
29030;SDS011;16122;50.236;11.734;2023-11-19T12:08:00;3.53;;;1.23;;
29030;SDS011;16122;50.236;11.734;2023-11-19T12:10:30;4.63;;;1.13;;
29030;SDS011;16122;50.236;11.734;2023-11-19T12:13:08;1.50;;;0.90;;
29030;SDS011;16122;50.236;11.734;2023-11-19T12:18:33;1.43;;;0.70;;
29030;SDS011;16122;50.236;11.734;2023-11-19T12:20:59;6.47;;;0.90;;
29030;SDS011;16122;50.236;11.734;2023-11-19T12:23:29;2.13;;;0.80;;
29030;SDS011;16122;50.236;11.734;2023-11-19T12:25:55;2.80;;;0.93;;
29030;SDS011;16122;50.236;11.734;2023-11-19T12:28:21;3.83;;;0.90;;
29030;SDS011;16122;50.236;11.734;2023-11-19T12:30:49;3.37;;;1.27;;
29030;SDS011;16122;50.236;11.734;2023-11-19T12:33:16;4.77;;;1.13;;
29030;SDS011;16122;50.236;11.734;2023-11-19T12:35:43;2.73;;;1.20;;
29030;SDS011;16122;50.236;11.734;2023-11-19T12:38:20;3.57;;;1.10;;
29030;SDS011;16122;50.236;11.734;2023-11-19T12:40:47;1.80;;;0.90;;
29030;SDS011;16122;50.236;11.734;2023-11-19T12:43:38;2.97;;;1.00;;
29030;SDS011;16122;50.236;11.734;2023-11-19T12:46:22;1.73;;;0.80;;
29030;SDS011;16122;50.236;11.734;2023-11-19T12:48:49;1.97;;;1.10;;
29030;SDS011;16122;50.236;11.734;2023-11-19T12:51:15;3.00;;;1.10;;
29030;SDS011;16122;50.236;11.734;2023-11-19T12:53:48;1.67;;;1.00;;
29030;SDS011;16122;50.236;11.734;2023-11-19T12:56:15;4.03;;;1.13;;
29030;SDS011;16122;50.236;11.734;2023-11-19T12:58:41;1.23;;;0.83;;
29030;SDS011;16122;50.236;11.734;2023-11-19T13:01:08;2.83;;;1.00;;
29030;SDS011;16122;50.236;11.734;2023-11-19T13:03:37;1.80;;;1.00;;
29030;SDS011;16122;50.236;11.734;2023-11-19T13:06:10;1.40;;;1.20;;
29030;SDS011;16122;50.236;11.734;2023-11-19T13:11:10;4.20;;;1.20;;
29030;SDS011;16122;50.236;11.734;2023-11-19T13:16:39;2.10;;;0.90;;
29030;SDS011;16122;50.236;11.734;2023-11-19T13:19:04;1.13;;;0.70;;
29030;SDS011;16122;50.236;11.734;2023-11-19T13:21:30;1.73;;;0.87;;
29030;SDS011;16122;50.236;11.734;2023-11-19T13:23:57;3.53;;;0.97;;
29030;SDS011;16122;50.236;11.734;2023-11-19T13:26:23;1.77;;;0.80;;
29030;SDS011;16122;50.236;11.734;2023-11-19T13:28:48;2.93;;;1.03;;
29030;SDS011;16122;50.236;11.734;2023-11-19T13:31:14;1.57;;;0.90;;
29030;SDS011;16122;50.236;11.734;2023-11-19T13:33:41;3.57;;;0.90;;
29030;SDS011;16122;50.236;11.734;2023-11-19T13:36:07;1.33;;;1.00;;
29030;SDS011;16122;50.236;11.734;2023-11-19T13:38:34;2.50;;;1.20;;
29030;SDS011;16122;50.236;11.734;2023-11-19T13:41:00;4.07;;;1.27;;
29030;SDS011;16122;50.236;11.734;2023-11-19T13:43:30;1.73;;;1.10;;
29030;SDS011;16122;50.236;11.734;2023-11-19T13:45:56;6.20;;;1.10;;
29030;SDS011;16122;50.236;11.734;2023-11-19T13:48:23;2.20;;;0.90;;
29030;SDS011;16122;50.236;11.734;2023-11-19T13:50:50;1.50;;;0.80;;
29030;SDS011;16122;50.236;11.734;2023-11-19T13:53:16;1.83;;;0.80;;
29030;SDS011;16122;50.236;11.734;2023-11-19T13:55:42;2.87;;;1.07;;
29030;SDS011;16122;50.236;11.734;2023-11-19T13:58:08;2.77;;;1.03;;
29030;SDS011;16122;50.236;11.734;2023-11-19T14:00:34;3.70;;;0.80;;
29030;SDS011;16122;50.236;11.734;2023-11-19T14:03:00;1.43;;;0.80;;
29030;SDS011;16122;50.236;11.734;2023-11-19T14:05:26;3.60;;;0.97;;
29030;SDS011;16122;50.236;11.734;2023-11-19T14:07:52;1.93;;;1.07;;
29030;SDS011;16122;50.236;11.734;2023-11-19T14:10:19;3.60;;;0.90;;
29030;SDS011;16122;50.236;11.734;2023-11-19T14:12:45;2.57;;;1.20;;
29030;SDS011;16122;50.236;11.734;2023-11-19T14:15:11;2.27;;;0.80;;
29030;SDS011;16122;50.236;11.734;2023-11-19T14:17:40;1.40;;;0.80;;
29030;SDS011;16122;50.236;11.734;2023-11-19T14:20:06;3.33;;;1.13;;
29030;SDS011;16122;50.236;11.734;2023-11-19T14:22:41;5.70;;;1.20;;
29030;SDS011;16122;50.236;11.734;2023-11-19T14:25:08;12.37;;;1.50;;
29030;SDS011;16122;50.236;11.734;2023-11-19T14:27:41;1.97;;;0.90;;
29030;SDS011;16122;50.236;11.734;2023-11-19T14:30:09;2.63;;;1.20;;
29030;SDS011;16122;50.236;11.734;2023-11-19T14:32:36;2.70;;;1.20;;
29030;SDS011;16122;50.236;11.734;2023-11-19T14:35:03;2.40;;;1.10;;
29030;SDS011;16122;50.236;11.734;2023-11-19T14:37:29;2.47;;;0.90;;
29030;SDS011;16122;50.236;11.734;2023-11-19T14:39:58;2.53;;;1.20;;
29030;SDS011;16122;50.236;11.734;2023-11-19T14:42:24;2.10;;;1.40;;
29030;SDS011;16122;50.236;11.734;2023-11-19T14:44:51;2.70;;;1.07;;
29030;SDS011;16122;50.236;11.734;2023-11-19T14:47:20;2.07;;;1.20;;
29030;SDS011;16122;50.236;11.734;2023-11-19T14:49:47;3.87;;;1.00;;
29030;SDS011;16122;50.236;11.734;2023-11-19T14:52:12;1.40;;;0.80;;
29030;SDS011;16122;50.236;11.734;2023-11-19T14:54:39;1.37;;;0.77;;
29030;SDS011;16122;50.236;11.734;2023-11-19T14:57:05;1.87;;;0.90;;
29030;SDS011;16122;50.236;11.734;2023-11-19T14:59:35;1.30;;;0.83;;
29030;SDS011;16122;50.236;11.734;2023-11-19T15:02:02;1.33;;;0.80;;
29030;SDS011;16122;50.236;11.734;2023-11-19T15:04:29;1.30;;;0.90;;
29030;SDS011;16122;50.236;11.734;2023-11-19T15:06:58;1.20;;;0.80;;